createdAt,value
2017-08-04T00:00:40.882Z,75.3
2017-08-04T00:01:41.835Z,75.0
2017-08-04T00:02:42.661Z,75.0
2017-08-04T00:03:43.433Z,75.0
2017-08-04T00:04:44.236Z,75.3
2017-08-04T00:05:45.029Z,75.2
2017-08-04T00:06:45.810Z,75.0
2017-08-04T00:07:46.536Z,75.2
2017-08-04T00:08:47.273Z,75.5
2017-08-04T00:09:48.181Z,75.2
2017-08-04T00:10:48.936Z,75.3
2017-08-04T00:11:50.052Z,75.0
2017-08-04T00:12:50.782Z,75.5
2017-08-04T00:13:51.784Z,75.0
2017-08-04T00:14:52.894Z,75.7
2017-08-04T00:15:53.720Z,75.5
2017-08-04T00:16:54.679Z,75.7
2017-08-04T00:17:56.027Z,75.3
2017-08-04T00:18:56.791Z,76.2
2017-08-04T00:19:57.598Z,75.4
2017-08-04T00:20:58.748Z,75.3
2017-08-04T00:21:59.490Z,75.1
2017-08-04T00:23:00.328Z,75.4
2017-08-04T00:24:01.141Z,75.5
2017-08-04T00:25:02.193Z,76.0
2017-08-04T00:26:03.087Z,75.6
2017-08-04T00:27:03.968Z,75.1
2017-08-04T00:28:04.922Z,75.6
2017-08-04T00:29:05.741Z,75.7
2017-08-04T00:30:07.386Z,75.8
2017-08-04T00:31:08.077Z,75.2
2017-08-04T00:32:09.043Z,75.0
2017-08-04T00:33:10.233Z,75.0
2017-08-04T00:34:10.977Z,75.1
2017-08-04T00:35:12.245Z,74.8
2017-08-04T00:36:14.321Z,74.5
2017-08-04T00:37:15.510Z,74.5
2017-08-04T00:38:16.824Z,75.2
2017-08-04T00:39:22.766Z,75.0
2017-08-04T00:40:23.599Z,75.2
2017-08-04T00:41:24.622Z,74.5
2017-08-04T00:42:25.996Z,75.1
2017-08-04T00:43:31.822Z,75.6
2017-08-04T00:44:32.566Z,75.1
2017-08-04T00:45:33.313Z,74.6
2017-08-04T00:46:34.147Z,74.3
2017-08-04T00:47:34.977Z,72.1
2017-08-04T00:48:35.881Z,73.1
2017-08-04T00:49:36.619Z,72.6
2017-08-04T00:50:38.553Z,73.0
2017-08-04T00:51:39.844Z,72.6
2017-08-04T00:52:40.734Z,73.5
2017-08-04T00:53:42.508Z,74.3
2017-08-04T00:54:43.284Z,72.7
2017-08-04T00:55:44.166Z,73.6
2017-08-04T00:56:45.053Z,72.4
2017-08-04T00:57:45.799Z,73.4
2017-08-04T00:58:46.682Z,73.8
2017-08-04T00:59:47.877Z,73.8
2017-08-04T01:00:49.159Z,74.2
2017-08-04T01:01:50.160Z,74.3
2017-08-04T01:02:51.221Z,74.3
2017-08-04T01:03:52.348Z,73.8
2017-08-04T01:04:53.120Z,74.5
2017-08-04T01:05:53.829Z,73.8
2017-08-04T01:06:54.901Z,74.5
2017-08-04T01:07:55.784Z,74.7
2017-08-04T01:08:56.512Z,75.0
2017-08-04T01:09:57.335Z,75.0
2017-08-04T01:10:58.131Z,75.3
2017-08-04T01:11:59.045Z,75.1
2017-08-04T01:13:00.045Z,75.1
2017-08-04T01:14:00.957Z,75.3
2017-08-04T01:15:01.883Z,74.9
2017-08-04T01:16:02.723Z,75.0
2017-08-04T01:17:03.653Z,74.8
2017-08-04T01:18:04.638Z,74.9
2017-08-04T01:19:05.513Z,74.6
2017-08-04T01:20:06.281Z,74.3
2017-08-04T01:21:07.047Z,74.1
2017-08-04T01:22:07.906Z,74.4
2017-08-04T01:23:09.119Z,74.4
2017-08-04T01:24:10.967Z,75.0
2017-08-04T01:25:12.575Z,74.3
2017-08-04T01:26:13.633Z,74.9
2017-08-04T01:27:14.296Z,74.0
2017-08-04T01:28:15.128Z,74.6
2017-08-04T01:29:16.287Z,74.2
2017-08-04T01:30:17.793Z,73.9
2017-08-04T01:31:19.071Z,74.6
2017-08-04T01:32:20.138Z,75.1
2017-08-04T01:33:21.368Z,75.3
2017-08-04T01:34:22.076Z,75.2
2017-08-04T01:35:22.791Z,75.6
2017-08-04T01:36:23.891Z,75.6
2017-08-04T01:37:24.767Z,75.8
2017-08-04T01:38:25.796Z,75.9
2017-08-04T01:39:26.617Z,76.2
2017-08-04T01:40:27.542Z,76.3
2017-08-04T01:41:28.679Z,75.6
2017-08-04T01:42:30.000Z,76.0
2017-08-04T01:43:31.375Z,75.2
2017-08-04T01:44:32.119Z,76.0
2017-08-04T01:45:33.255Z,76.2
2017-08-04T01:46:34.099Z,76.0
2017-08-04T01:47:35.374Z,76.2
2017-08-04T01:48:36.509Z,76.0
2017-08-04T01:49:37.258Z,76.3
2017-08-04T01:50:39.465Z,76.6
2017-08-04T01:51:40.543Z,76.1
2017-08-04T01:52:41.287Z,76.6
2017-08-04T01:53:42.259Z,76.6
2017-08-04T01:54:44.864Z,76.6
2017-08-04T01:55:45.622Z,76.4
2017-08-04T01:56:46.370Z,77.1
2017-08-04T01:57:47.118Z,76.8
2017-08-04T01:58:47.920Z,77.1
2017-08-04T01:59:48.874Z,77.2
2017-08-04T02:00:50.004Z,76.6
2017-08-04T02:01:50.862Z,76.7
2017-08-04T02:02:51.605Z,77.4
2017-08-04T02:03:52.389Z,77.5
2017-08-04T02:04:53.311Z,76.6
2017-08-04T02:05:54.185Z,76.2
2017-08-04T02:06:55.072Z,76.2
2017-08-04T02:07:56.174Z,75.6
2017-08-04T02:08:57.087Z,75.2
2017-08-04T02:09:58.061Z,76.1
2017-08-04T02:10:59.046Z,75.4
2017-08-04T02:12:00.202Z,75.5
2017-08-04T02:13:01.506Z,76.1
2017-08-04T02:16:33.491Z,75.6
2017-08-04T02:17:34.221Z,75.6
2017-08-04T02:18:35.012Z,75.9
2017-08-04T02:19:35.836Z,76.0
2017-08-04T02:20:36.683Z,76.9
2017-08-04T02:21:37.516Z,76.3
2017-08-04T02:22:38.759Z,76.0
2017-08-04T02:23:39.831Z,76.8
2017-08-04T02:24:40.573Z,76.0
2017-08-04T02:25:41.680Z,77.1
2017-08-04T02:26:42.405Z,77.1
2017-08-04T02:27:43.220Z,77.1
2017-08-04T02:28:43.954Z,76.4
2017-08-04T02:29:44.905Z,75.9
2017-08-04T02:30:45.652Z,77.3
2017-08-04T02:31:46.423Z,76.4
2017-08-04T02:32:47.226Z,76.6
2017-08-04T02:33:48.129Z,76.8
2017-08-04T02:34:48.915Z,76.3
2017-08-04T02:35:49.787Z,76.4
2017-08-04T02:36:50.651Z,76.4
2017-08-04T02:37:51.635Z,75.9
2017-08-04T02:38:52.501Z,76.2
2017-08-04T02:39:53.260Z,75.8
2017-08-04T02:40:54.037Z,76.2
2017-08-04T02:41:54.839Z,77.5
2017-08-04T02:42:55.757Z,76.5
2017-08-04T02:43:56.536Z,76.8
2017-08-04T02:44:57.559Z,76.0
2017-08-04T02:45:58.412Z,75.7
2017-08-04T02:46:59.453Z,76.5
2017-08-04T02:48:00.273Z,76.6
2017-08-04T02:49:01.042Z,75.7
2017-08-04T02:50:01.829Z,75.5
2017-08-04T02:51:03.008Z,76.5
2017-08-04T02:52:03.885Z,76.0
2017-08-04T02:53:04.706Z,75.7
2017-08-04T02:54:05.593Z,76.1
2017-08-04T02:55:06.401Z,75.7
2017-08-04T02:56:07.131Z,76.5
2017-08-04T02:57:07.888Z,77.0
2017-08-04T02:58:08.998Z,76.5
2017-08-04T02:59:09.720Z,76.4
2017-08-04T03:00:10.498Z,76.8
2017-08-04T03:01:11.482Z,76.8
2017-08-04T03:02:12.246Z,77.4
2017-08-04T03:03:12.970Z,76.7
2017-08-04T03:04:13.763Z,77.6
2017-08-04T03:05:14.757Z,77.3
2017-08-04T03:06:15.528Z,77.8
2017-08-04T03:07:16.337Z,78.2
2017-08-04T03:08:17.397Z,77.6
2017-08-04T03:09:18.287Z,78.1
2017-08-04T03:10:19.095Z,77.4
2017-08-04T03:11:19.841Z,77.3
2017-08-04T03:12:20.681Z,78.2
2017-08-04T03:13:21.475Z,78.1
2017-08-04T03:14:22.261Z,77.4
2017-08-04T03:15:23.063Z,76.7
2017-08-04T03:16:23.909Z,77.6
2017-08-04T03:17:24.689Z,76.8
2017-08-04T03:18:25.544Z,77.9
2017-08-04T03:19:26.424Z,77.3
2017-08-04T03:20:27.396Z,77.8
2017-08-04T03:21:28.145Z,76.7
2017-08-04T03:22:28.963Z,77.5
2017-08-04T03:23:29.690Z,77.2
2017-08-04T03:24:30.419Z,77.8
2017-08-04T03:25:31.217Z,77.0
2017-08-04T03:26:32.234Z,77.1
2017-08-04T03:27:32.945Z,77.7
2017-08-04T03:28:33.908Z,76.6
2017-08-04T03:29:35.004Z,76.2
2017-08-04T03:30:35.921Z,75.8
2017-08-04T03:31:36.676Z,76.5
2017-08-04T03:32:37.496Z,76.3
2017-08-04T03:33:38.265Z,76.5
2017-08-04T03:34:39.028Z,76.3
2017-08-04T03:35:40.083Z,76.3
2017-08-04T03:36:40.816Z,77.0
2017-08-04T03:37:42.894Z,75.9
2017-08-04T03:38:43.677Z,76.1
2017-08-04T03:39:44.447Z,76.7
2017-08-04T03:40:45.329Z,76.3
2017-08-04T03:41:46.163Z,76.0
2017-08-04T03:42:47.016Z,77.0
2017-08-04T03:43:47.927Z,76.3
2017-08-04T03:44:48.769Z,77.0
2017-08-04T03:45:49.575Z,76.7
2017-08-04T03:46:50.403Z,77.1
2017-08-04T03:47:51.199Z,76.6
2017-08-04T03:48:51.912Z,77.1
2017-08-04T03:49:52.713Z,77.7
2017-08-04T03:50:53.583Z,77.1
2017-08-04T03:51:54.454Z,78.1
2017-08-04T03:52:55.301Z,77.9
2017-08-04T03:53:56.079Z,78.1
2017-08-04T03:54:56.841Z,77.8
2017-08-04T03:55:57.878Z,77.4
2017-08-04T03:56:58.969Z,77.8
2017-08-04T03:57:59.991Z,77.8
2017-08-04T03:59:00.814Z,78.0
2017-08-04T04:00:01.743Z,78.0
2017-08-04T04:01:02.621Z,78.2
2017-08-04T04:02:03.476Z,77.8
2017-08-04T04:03:04.489Z,78.0
2017-08-04T04:04:05.291Z,78.1
2017-08-04T04:05:06.150Z,78.0
2017-08-04T04:06:07.081Z,77.8
2017-08-04T04:07:07.965Z,78.1
2017-08-04T04:08:08.816Z,78.9
2017-08-04T04:09:09.698Z,79.4
2017-08-04T04:10:10.579Z,78.1
2017-08-04T04:11:11.434Z,78.8
2017-08-04T04:12:12.287Z,78.1
2017-08-04T04:13:13.206Z,78.3
2017-08-04T04:14:14.065Z,78.4
2017-08-04T04:15:14.943Z,78.7
2017-08-04T04:16:15.804Z,78.1
2017-08-04T04:17:16.909Z,78.5
2017-08-04T04:18:17.796Z,77.8
2017-08-04T04:19:18.667Z,78.2
2017-08-04T04:20:19.776Z,77.8
2017-08-04T04:21:20.724Z,78.1
2017-08-04T04:22:21.476Z,78.0
2017-08-04T04:23:22.227Z,78.3
2017-08-04T04:24:23.158Z,78.2
2017-08-04T04:25:24.018Z,78.1
2017-08-04T04:26:24.782Z,78.1
2017-08-04T04:27:25.543Z,78.0
2017-08-04T04:28:26.299Z,77.7
2017-08-04T04:29:27.021Z,79.1
2017-08-04T04:30:27.826Z,78.9
2017-08-04T04:31:28.607Z,78.9
2017-08-04T04:32:29.508Z,78.9
2017-08-04T04:33:30.287Z,79.3
2017-08-04T04:34:31.081Z,79.1
2017-08-04T04:35:31.814Z,79.2
2017-08-04T04:36:32.620Z,79.5
2017-08-04T04:37:33.441Z,79.9
2017-08-04T04:38:34.284Z,80.0
2017-08-04T04:39:35.041Z,79.7
2017-08-04T04:40:35.902Z,79.9
2017-08-04T04:41:36.708Z,79.9
2017-08-04T04:42:37.641Z,79.2
2017-08-04T04:43:38.384Z,78.4
2017-08-04T04:44:39.238Z,78.6
2017-08-04T04:45:40.251Z,79.3
2017-08-04T04:46:41.028Z,78.9
2017-08-04T04:47:41.848Z,78.4
2017-08-04T04:48:42.907Z,78.4
2017-08-04T04:49:43.679Z,78.8
2017-08-04T04:50:44.506Z,79.1
2017-08-04T04:51:45.243Z,78.1
2017-08-04T04:52:46.009Z,78.1
2017-08-04T04:53:46.848Z,78.4
2017-08-04T04:54:47.629Z,78.4
2017-08-04T04:55:48.490Z,79.0
2017-08-04T04:56:49.214Z,78.5
2017-08-04T04:57:50.083Z,78.2
2017-08-04T04:58:50.838Z,78.0
2017-08-04T04:59:51.612Z,78.1
2017-08-04T05:00:52.562Z,77.6
2017-08-04T05:01:53.520Z,78.1
2017-08-04T05:02:54.274Z,77.7
2017-08-04T05:03:55.136Z,78.6
2017-08-04T05:04:55.971Z,78.5
2017-08-04T05:05:56.802Z,78.6
2017-08-04T05:06:57.574Z,78.1
2017-08-04T05:07:58.365Z,77.8
2017-08-04T05:08:59.134Z,77.6
2017-08-04T05:10:00.126Z,77.4
2017-08-04T05:11:00.909Z,77.2
2017-08-04T05:12:01.736Z,78.2
2017-08-04T05:13:02.563Z,77.8
2017-08-04T05:14:03.515Z,78.3
2017-08-04T05:15:04.333Z,77.8
2017-08-04T05:16:05.142Z,77.5
2017-08-04T05:17:06.028Z,77.6
2017-08-04T05:18:07.033Z,77.2
2017-08-04T05:19:07.902Z,76.5
2017-08-04T05:20:08.714Z,76.7
2017-08-04T05:21:09.648Z,76.0
2017-08-04T05:22:10.398Z,76.5
2017-08-04T05:23:11.208Z,77.0
2017-08-04T05:24:12.315Z,75.1
2017-08-04T05:25:13.072Z,75.2
2017-08-04T05:26:13.786Z,75.2
2017-08-04T05:27:14.750Z,73.0
2017-08-04T05:28:16.241Z,73.5
2017-08-04T05:29:16.978Z,72.6
2017-08-04T05:30:17.861Z,72.6
2017-08-04T05:31:18.724Z,73.7
2017-08-04T05:32:19.606Z,73.2
2017-08-04T05:33:20.490Z,73.7
2017-08-04T05:34:21.356Z,75.0
2017-08-04T05:35:22.218Z,76.0
2017-08-04T05:36:23.031Z,73.9
2017-08-04T05:37:23.853Z,74.9
2017-08-04T05:38:24.617Z,75.4
2017-08-04T05:39:25.501Z,76.6
2017-08-04T05:40:26.419Z,75.9
2017-08-04T05:41:27.301Z,73.8
2017-08-04T05:42:28.469Z,74.6
2017-08-04T05:43:29.240Z,75.5
2017-08-04T05:44:30.188Z,73.7
2017-08-04T05:45:31.067Z,73.9
2017-08-04T05:46:31.913Z,74.2
2017-08-04T05:47:32.660Z,73.8
2017-08-04T05:49:49.055Z,71.0
2017-08-04T05:50:49.926Z,72.5
2017-08-04T05:51:50.819Z,71.6
2017-08-04T05:52:51.662Z,72.7
2017-08-04T05:53:52.493Z,72.9
2017-08-04T05:54:53.293Z,72.9
2017-08-04T05:55:54.129Z,71.5
2017-08-04T05:56:54.887Z,70.8
2017-08-04T05:57:55.662Z,71.1
2017-08-04T05:58:56.414Z,70.8
2017-08-04T05:59:57.559Z,70.2
2017-08-04T06:00:58.310Z,70.9
2017-08-04T06:01:59.189Z,71.5
2017-08-04T06:02:59.980Z,71.5
2017-08-04T06:04:00.807Z,70.4
2017-08-04T06:05:01.716Z,69.9
2017-08-04T06:06:02.581Z,70.6
2017-08-04T06:07:03.342Z,71.1
2017-08-04T06:08:04.144Z,71.3
2017-08-04T06:09:04.975Z,70.6
2017-08-04T06:10:05.823Z,70.5
2017-08-04T06:11:06.630Z,70.1
2017-08-04T06:12:07.538Z,69.4
2017-08-04T06:13:08.375Z,71.3
2017-08-04T06:14:09.336Z,71.1
2017-08-04T06:15:10.398Z,70.9
2017-08-04T06:16:11.148Z,71.1
2017-08-04T06:17:12.020Z,71.2
2017-08-04T06:18:12.834Z,72.0
2017-08-04T06:19:13.591Z,71.4
2017-08-04T06:20:14.454Z,69.7
2017-08-04T06:21:15.277Z,69.7
2017-08-04T06:22:16.118Z,70.1
2017-08-04T06:23:16.886Z,69.8
2017-08-04T06:24:17.655Z,70.5
2017-08-04T06:25:18.521Z,68.3
2017-08-04T06:26:19.432Z,68.1
2017-08-04T06:27:20.179Z,69.4
2017-08-04T06:28:21.052Z,69.3
2017-08-04T06:29:21.809Z,69.5
2017-08-04T06:30:22.638Z,69.1
2017-08-04T06:31:23.542Z,69.6
2017-08-04T06:32:24.362Z,70.0
2017-08-04T06:33:25.323Z,69.1
2017-08-04T06:34:26.653Z,69.1
2017-08-04T06:35:27.583Z,69.5
2017-08-04T06:36:28.500Z,67.7
2017-08-04T06:37:29.271Z,69.3
2017-08-04T06:38:30.172Z,69.4
2017-08-04T06:39:31.022Z,69.2
2017-08-04T06:40:31.913Z,68.3
2017-08-04T06:41:32.740Z,67.6
2017-08-04T06:42:33.744Z,67.0
2017-08-04T06:43:34.723Z,67.9
2017-08-04T06:44:35.586Z,67.9
2017-08-04T06:45:36.580Z,67.5
2017-08-04T06:46:37.619Z,66.2
2017-08-04T06:47:38.671Z,67.5
2017-08-04T06:48:39.871Z,68.1
2017-08-04T06:49:40.771Z,68.1
2017-08-04T06:50:41.838Z,67.9
2017-08-04T06:51:42.733Z,67.6
2017-08-04T06:52:43.755Z,67.2
2017-08-04T06:53:44.615Z,68.4
2017-08-04T06:54:45.555Z,67.0
2017-08-04T06:55:46.569Z,66.5
2017-08-04T06:56:53.717Z,67.5
2017-08-04T06:57:54.810Z,68.0
2017-08-04T06:58:55.976Z,67.6
2017-08-04T06:59:56.840Z,67.5
2017-08-04T07:00:57.735Z,66.0
2017-08-04T07:01:58.584Z,66.7
2017-08-04T07:02:59.507Z,66.7
2017-08-04T07:04:00.431Z,66.6
2017-08-04T07:05:01.371Z,67.5
2017-08-04T07:07:18.093Z,66.5
2017-08-04T07:08:19.486Z,67.0
2017-08-04T07:09:20.500Z,67.9
2017-08-04T07:10:21.498Z,68.0
2017-08-04T07:11:22.301Z,67.5
2017-08-04T07:12:23.451Z,67.4
2017-08-04T07:13:24.270Z,66.6
2017-08-04T07:14:25.507Z,66.6
2017-08-04T07:15:26.640Z,66.8
2017-08-04T07:16:27.483Z,66.4
2017-08-04T07:17:28.314Z,67.0
2017-08-04T07:18:29.175Z,66.5
2017-08-04T07:19:30.429Z,66.4
2017-08-04T07:20:31.911Z,66.5
2017-08-04T07:21:32.960Z,67.5
2017-08-04T07:22:34.200Z,67.4
2017-08-04T07:23:35.215Z,66.8
2017-08-04T07:24:36.241Z,66.4
2017-08-04T07:25:37.165Z,67.5
2017-08-04T07:26:38.154Z,67.6
2017-08-04T07:27:39.010Z,66.0
2017-08-04T07:28:40.080Z,66.6
2017-08-04T07:29:40.998Z,65.9
2017-08-04T07:30:42.443Z,65.9
2017-08-04T07:31:43.430Z,64.9
2017-08-04T07:32:44.271Z,65.3
2017-08-04T07:33:45.164Z,65.2
2017-08-04T07:34:46.279Z,65.2
2017-08-04T07:35:47.204Z,66.0
2017-08-04T07:36:48.137Z,65.8
2017-08-04T07:37:49.133Z,66.3
2017-08-04T07:38:49.972Z,67.2
2017-08-04T07:39:51.185Z,66.5
2017-08-04T07:40:52.102Z,66.4
2017-08-04T07:41:53.195Z,65.5
2017-08-04T07:42:54.055Z,66.1
2017-08-04T07:43:55.003Z,65.6
2017-08-04T07:44:55.936Z,66.3
2017-08-04T07:45:56.924Z,65.9
2017-08-04T07:46:57.676Z,64.4
2017-08-04T07:47:58.981Z,65.2
2017-08-04T07:48:59.756Z,65.8
2017-08-04T07:50:00.701Z,66.2
2017-08-04T07:51:01.676Z,65.1
2017-08-04T07:52:02.476Z,65.0
2017-08-04T07:53:03.489Z,66.3
2017-08-04T07:54:04.270Z,65.6
2017-08-04T07:55:05.113Z,65.1
2017-08-04T07:56:05.994Z,65.0
2017-08-04T07:57:06.881Z,64.7
2017-08-04T07:58:07.774Z,64.5
2017-08-04T07:59:08.567Z,64.6
2017-08-04T08:00:09.459Z,66.0
2017-08-04T08:01:10.384Z,66.0
2017-08-04T08:02:11.426Z,63.5
2017-08-04T08:03:12.318Z,62.8
2017-08-04T08:04:13.178Z,62.9
2017-08-04T08:06:30.601Z,63.9
2017-08-04T08:07:31.545Z,63.9
2017-08-04T08:08:32.377Z,62.6
2017-08-04T08:09:33.551Z,62.8
2017-08-04T08:10:34.908Z,64.5
2017-08-04T08:11:35.808Z,62.9
2017-08-04T08:12:36.766Z,60.9
2017-08-04T08:13:37.571Z,59.9
2017-08-04T08:14:38.379Z,61.5
2017-08-04T08:15:39.250Z,62.6
2017-08-04T08:16:40.072Z,62.7
2017-08-04T08:17:40.902Z,61.8
2017-08-04T08:19:57.342Z,61.1
2017-08-04T08:20:58.181Z,59.9
2017-08-04T08:21:59.297Z,59.8
2017-08-04T08:23:00.340Z,61.1
2017-08-04T08:24:01.413Z,61.7
2017-08-04T08:25:02.140Z,62.9
2017-08-04T08:26:03.338Z,61.0
2017-08-04T08:27:04.342Z,61.2
2017-08-04T08:28:05.486Z,60.4
2017-08-04T08:29:06.309Z,60.6
2017-08-04T08:30:07.141Z,61.7
2017-08-04T08:32:23.758Z,57.7
2017-08-04T08:33:24.724Z,58.7
2017-08-04T08:34:25.546Z,59.4
2017-08-04T08:35:26.405Z,58.5
2017-08-04T08:36:27.416Z,58.4
2017-08-04T08:37:29.059Z,60.0
2017-08-04T08:38:30.297Z,59.2
2017-08-04T08:39:31.436Z,61.0
2017-08-04T08:40:32.378Z,60.0
2017-08-04T08:41:33.107Z,61.3
2017-08-04T08:42:34.016Z,59.9
2017-08-04T08:43:35.239Z,60.6
2017-08-04T08:44:36.025Z,58.6
2017-08-04T08:45:36.926Z,60.3
2017-08-04T08:46:37.952Z,59.6
2017-08-04T08:47:39.181Z,57.9
2017-08-04T08:48:40.027Z,57.9
2017-08-04T08:49:40.841Z,57.1
2017-08-04T08:50:42.233Z,57.9
2017-08-04T08:51:43.045Z,58.2
2017-08-04T08:52:44.019Z,57.6
2017-08-04T08:53:45.007Z,57.3
2017-08-04T08:54:46.207Z,56.0
2017-08-04T08:55:47.363Z,57.8
2017-08-04T08:56:48.251Z,55.7
2017-08-04T08:57:49.840Z,55.2
2017-08-04T08:58:51.152Z,54.6
2017-08-04T08:59:52.308Z,55.7
2017-08-04T09:00:53.187Z,55.0
2017-08-04T09:01:54.436Z,55.1
2017-08-04T09:02:55.379Z,56.2
2017-08-04T09:03:56.301Z,53.9
2017-08-04T09:04:57.231Z,54.8
2017-08-04T09:05:58.262Z,54.3
2017-08-04T09:06:59.801Z,54.8
2017-08-04T09:09:16.604Z,54.5
2017-08-04T09:10:17.456Z,54.7
2017-08-04T09:11:18.574Z,53.4
2017-08-04T09:12:19.753Z,54.1
2017-08-04T09:13:20.970Z,53.3
2017-08-04T09:14:22.097Z,52.5
2017-08-04T09:15:23.132Z,53.3
2017-08-04T09:16:24.134Z,55.7
2017-08-04T09:17:24.960Z,56.1
2017-08-04T09:19:41.456Z,53.7
2017-08-04T09:20:43.170Z,53.3
2017-08-04T09:21:44.163Z,53.8
2017-08-04T09:24:03.214Z,53.9
2017-08-04T09:25:02.486Z,54.6
2017-08-04T09:26:04.128Z,52.5
2017-08-04T09:27:05.049Z,52.7
2017-08-04T09:28:06.435Z,52.4
2017-08-04T09:29:07.402Z,54.1
2017-08-04T09:30:08.585Z,52.2
2017-08-04T09:31:09.894Z,53.9
2017-08-04T09:33:26.303Z,54.4
2017-08-04T09:34:27.171Z,54.2
2017-08-04T09:35:28.162Z,55.2
2017-08-04T09:36:29.003Z,52.7
2017-08-04T09:37:30.044Z,54.1
2017-08-04T09:38:31.092Z,54.2
2017-08-04T09:39:32.351Z,55.7
2017-08-04T09:40:33.190Z,55.7
2017-08-04T09:41:34.027Z,54.1
2017-08-04T09:42:34.877Z,53.1
2017-08-04T09:43:36.184Z,54.3
2017-08-04T09:44:37.287Z,55.2
2017-08-04T09:45:38.074Z,55.6
2017-08-04T09:46:40.010Z,55.0
2017-08-04T09:47:40.960Z,54.7
2017-08-04T09:48:42.296Z,53.7
2017-08-04T09:49:43.457Z,52.3
2017-08-04T09:52:00.251Z,54.3
2017-08-04T09:53:01.579Z,53.6
2017-08-04T09:54:02.630Z,54.5
2017-08-04T09:55:03.770Z,52.7
2017-08-04T09:56:04.849Z,53.3
2017-08-04T09:57:06.101Z,55.0
2017-08-04T09:58:07.247Z,54.5
2017-08-04T09:59:08.370Z,54.5
2017-08-04T10:00:09.235Z,54.8
2017-08-04T10:01:10.309Z,54.9
2017-08-04T10:02:11.339Z,52.9
2017-08-04T10:03:12.220Z,54.3
2017-08-04T10:04:13.324Z,53.9
2017-08-04T10:05:14.381Z,54.1
2017-08-04T10:06:15.443Z,55.6
2017-08-04T10:07:16.567Z,54.1
2017-08-04T10:08:17.635Z,55.8
2017-08-04T10:09:18.902Z,54.5
2017-08-04T10:10:20.080Z,53.2
2017-08-04T10:11:21.538Z,54.3
2017-08-04T10:12:22.990Z,53.0
2017-08-04T10:13:23.918Z,53.0
2017-08-04T10:14:25.022Z,52.5
2017-08-04T10:15:26.299Z,53.5
2017-08-04T10:16:28.209Z,54.2
2017-08-04T10:17:29.330Z,54.8
2017-08-04T10:18:30.330Z,54.3
2017-08-04T10:19:31.236Z,50.6
2017-08-04T10:20:32.173Z,51.5
2017-08-04T10:21:33.660Z,53.2
2017-08-04T10:22:34.774Z,54.6
2017-08-04T10:23:36.212Z,53.4
2017-08-04T10:24:37.212Z,52.3
2017-08-04T10:25:38.065Z,54.7
2017-08-04T10:26:39.181Z,53.0
2017-08-04T10:27:40.124Z,52.9
2017-08-04T10:28:41.233Z,53.0
2017-08-04T10:29:42.193Z,52.3
2017-08-04T10:30:43.506Z,51.9
2017-08-04T10:31:44.395Z,51.3
2017-08-04T10:32:45.666Z,52.9
2017-08-04T10:33:46.753Z,52.4
2017-08-04T10:34:47.729Z,51.6
2017-08-04T10:35:48.931Z,53.4
2017-08-04T10:36:50.122Z,54.9
2017-08-04T10:37:50.990Z,51.2
2017-08-04T10:38:51.987Z,52.1
2017-08-04T10:39:53.055Z,53.1
2017-08-04T10:40:54.544Z,52.7
2017-08-04T10:41:55.354Z,52.4
2017-08-04T10:42:56.334Z,49.7
2017-08-04T10:43:57.240Z,50.8
2017-08-04T10:44:58.213Z,51.3
2017-08-04T10:45:59.175Z,52.8
2017-08-04T10:47:00.571Z,51.4
2017-08-04T10:48:01.449Z,51.6
2017-08-04T10:49:02.259Z,51.2
2017-08-04T10:50:03.308Z,50.5
2017-08-04T10:51:04.253Z,51.3
2017-08-04T10:52:05.253Z,51.4
2017-08-04T10:53:06.355Z,51.8
2017-08-04T10:54:07.454Z,50.5
2017-08-04T10:55:08.569Z,50.1
2017-08-04T10:56:09.527Z,51.2
2017-08-04T10:57:10.324Z,53.0
2017-08-04T10:58:11.417Z,51.3
2017-08-04T10:59:12.542Z,52.1
2017-08-04T11:00:13.673Z,53.3
2017-08-04T11:01:14.535Z,52.1
2017-08-04T11:02:15.442Z,52.4
2017-08-04T11:03:16.358Z,52.1
2017-08-04T11:04:17.468Z,49.8
2017-08-04T11:05:18.595Z,52.5
2017-08-04T11:06:19.536Z,50.1
2017-08-04T11:07:20.453Z,50.9
2017-08-04T11:08:21.589Z,51.5
2017-08-04T11:09:22.390Z,50.2
2017-08-04T11:10:23.694Z,49.3
2017-08-04T11:12:40.245Z,48.5
2017-08-04T11:13:41.170Z,50.4
2017-08-04T11:14:42.526Z,47.5
2017-08-04T11:15:43.900Z,46.1
2017-08-04T11:16:44.688Z,45.9
2017-08-04T11:17:45.617Z,48.8
2017-08-04T11:18:47.028Z,48.3
2017-08-04T11:19:48.667Z,46.2
2017-08-04T11:20:49.937Z,47.6
2017-08-04T11:21:50.693Z,46.4
2017-08-04T11:22:51.678Z,49.0
2017-08-04T11:23:52.625Z,44.0
2017-08-04T11:24:53.667Z,46.1
2017-08-04T11:25:55.085Z,46.3
2017-08-04T11:26:56.052Z,46.9
2017-08-04T11:27:57.316Z,46.8
2017-08-04T11:28:58.303Z,47.3
2017-08-04T11:29:59.524Z,46.8
2017-08-04T11:31:00.568Z,44.5
2017-08-04T11:32:01.859Z,45.5
2017-08-04T11:33:02.720Z,46.1
2017-08-04T11:34:03.556Z,46.3
2017-08-04T11:35:04.449Z,43.4
2017-08-04T11:36:05.283Z,44.9
2017-08-04T11:37:06.625Z,44.5
2017-08-04T11:38:07.612Z,44.6
2017-08-04T11:39:08.889Z,46.7
2017-08-04T11:40:09.819Z,46.7
2017-08-04T11:41:11.493Z,47.9
2017-08-04T11:42:12.434Z,45.5
2017-08-04T11:43:13.902Z,45.1
2017-08-04T11:44:15.299Z,46.3
2017-08-04T11:45:16.342Z,47.2
2017-08-04T11:46:17.825Z,48.1
2017-08-04T11:47:18.709Z,48.3
2017-08-04T11:48:20.032Z,47.5
2017-08-04T11:49:21.074Z,45.6
2017-08-04T11:50:22.018Z,42.4
2017-08-04T11:51:22.988Z,45.3
2017-08-04T11:52:24.682Z,44.5
2017-08-04T11:53:25.767Z,45.2
2017-08-04T11:54:26.838Z,45.9
2017-08-04T11:55:27.949Z,44.5
2017-08-04T11:56:29.057Z,47.3
2017-08-04T11:57:29.851Z,46.7
2017-08-04T11:58:31.167Z,45.5
2017-08-04T11:59:32.095Z,44.5
2017-08-04T12:00:33.059Z,43.5
2017-08-04T12:01:33.893Z,42.2
2017-08-04T12:02:34.977Z,44.3
2017-08-04T12:03:36.546Z,45.7
2017-08-04T12:04:37.557Z,45.6
2017-08-04T12:05:38.783Z,43.3
2017-08-04T12:06:39.628Z,43.2
2017-08-04T12:07:40.758Z,45.7
2017-08-04T12:08:41.621Z,47.0
2017-08-04T12:09:42.669Z,45.3
2017-08-04T12:10:43.938Z,44.5
2017-08-04T12:11:45.147Z,45.7
2017-08-04T12:12:46.339Z,45.8
2017-08-04T12:13:47.334Z,47.1
2017-08-04T12:14:48.446Z,46.5
2017-08-04T12:15:49.406Z,46.5
2017-08-04T12:16:50.458Z,47.7
2017-08-04T12:17:51.416Z,47.0
2017-08-04T12:18:52.278Z,45.4
2017-08-04T12:19:53.229Z,45.2
2017-08-04T12:20:54.249Z,45.7
2017-08-04T12:21:55.087Z,46.6
2017-08-04T12:22:56.173Z,45.0
2017-08-04T12:23:57.135Z,46.5
2017-08-04T12:24:58.265Z,47.7
2017-08-04T12:25:59.144Z,45.1
2017-08-04T12:27:00.476Z,46.0
2017-08-04T12:28:01.584Z,49.0
2017-08-04T12:29:02.931Z,46.9
2017-08-04T12:30:03.698Z,46.8
2017-08-04T12:31:04.654Z,45.3
2017-08-04T12:32:05.942Z,45.7
2017-08-04T12:33:06.912Z,45.7
2017-08-04T12:34:07.815Z,45.2
2017-08-04T12:35:08.727Z,45.7
2017-08-04T12:36:09.749Z,45.2
2017-08-04T12:37:10.869Z,45.6
2017-08-04T12:38:11.896Z,46.7
2017-08-04T12:39:12.790Z,46.0
2017-08-04T12:40:13.544Z,45.2
2017-08-04T12:41:14.490Z,46.1
2017-08-04T12:42:15.393Z,45.4
2017-08-04T12:43:16.166Z,45.9
2017-08-04T12:44:17.260Z,46.5
2017-08-04T12:45:18.242Z,45.7
2017-08-04T12:46:24.509Z,44.5
2017-08-04T12:47:25.399Z,45.2
2017-08-04T12:48:26.501Z,45.1
2017-08-04T12:49:27.647Z,43.5
2017-08-04T12:50:28.679Z,44.5
2017-08-04T12:51:29.694Z,43.8
2017-08-04T12:52:30.652Z,43.2
2017-08-04T12:53:31.475Z,45.3
2017-08-04T12:54:32.796Z,44.2
2017-08-04T12:55:33.947Z,45.5
2017-08-04T12:56:35.112Z,44.3
2017-08-04T12:57:35.905Z,44.6
2017-08-04T12:58:37.034Z,45.2
2017-08-04T12:59:38.055Z,45.3
2017-08-04T13:00:39.146Z,44.7
2017-08-04T13:01:40.312Z,45.0
2017-08-04T13:02:41.306Z,45.9
2017-08-04T13:03:42.389Z,44.1
2017-08-04T13:04:43.814Z,45.6
2017-08-04T13:05:44.680Z,45.5
2017-08-04T13:06:45.899Z,45.9
2017-08-04T13:07:47.521Z,45.7
2017-08-04T13:08:48.478Z,47.6
2017-08-04T13:09:49.514Z,46.1
2017-08-04T13:10:50.766Z,45.8
2017-08-04T13:11:51.701Z,45.7
2017-08-04T13:12:52.633Z,45.3
2017-08-04T13:13:53.861Z,45.8
2017-08-04T13:14:54.952Z,46.2
2017-08-04T13:15:56.116Z,45.9
2017-08-04T13:16:57.284Z,46.8
2017-08-04T13:17:58.187Z,47.4
2017-08-04T13:18:59.130Z,49.2
2017-08-04T13:20:00.340Z,46.9
2017-08-04T13:21:01.595Z,45.5
2017-08-04T13:22:02.772Z,45.8
2017-08-04T13:23:03.725Z,45.9
2017-08-04T13:24:04.983Z,45.0
2017-08-04T13:25:06.191Z,44.6
2017-08-04T13:26:06.951Z,44.3
2017-08-04T13:27:07.882Z,44.6
2017-08-04T13:28:08.887Z,45.6
2017-08-04T13:29:10.082Z,44.7
2017-08-04T13:30:11.192Z,44.5
2017-08-04T13:31:12.601Z,41.7
2017-08-04T13:32:14.013Z,42.7
2017-08-04T13:33:14.804Z,45.4
2017-08-04T13:34:16.187Z,44.3
2017-08-04T13:35:17.020Z,45.2
2017-08-04T13:36:18.007Z,45.8
2017-08-04T13:37:19.002Z,46.2
2017-08-04T13:38:19.956Z,45.9
2017-08-04T13:39:21.127Z,46.1
2017-08-04T13:40:22.113Z,44.0
2017-08-04T13:41:23.081Z,42.0
2017-08-04T13:42:24.013Z,41.9
2017-08-04T13:43:24.905Z,41.0
2017-08-04T13:44:25.832Z,40.4
2017-08-04T13:46:42.216Z,41.8
2017-08-04T13:47:43.495Z,41.4
2017-08-04T13:48:44.358Z,41.7
2017-08-04T13:49:45.829Z,40.9